createdAt,value
2018-12-27T00:00:34.722Z,90.80
2018-12-27T00:01:34.714Z,86.00
2018-12-27T00:02:34.701Z,81.10
2018-12-27T00:03:34.691Z,78.70
2018-12-27T00:04:34.701Z,83.10
2018-12-27T00:05:34.667Z,79.80
2018-12-27T00:06:34.661Z,74.60
2018-12-27T00:07:34.649Z,76.70
2018-12-27T00:08:34.636Z,78.30
2018-12-27T00:09:34.633Z,75.90
2018-12-27T00:10:34.614Z,74.10
2018-12-27T00:11:34.605Z,72.20
2018-12-27T00:12:34.593Z,75.40
2018-12-27T00:13:34.582Z,75.60
2018-12-27T00:14:34.605Z,73.10
2018-12-27T00:15:34.561Z,73.50
2018-12-27T00:16:34.550Z,77.10
2018-12-27T00:17:34.539Z,74.50
2018-12-27T00:18:34.527Z,83.80
2018-12-27T00:19:34.521Z,79.40
2018-12-27T00:20:34.516Z,77.40
2018-12-27T00:21:34.508Z,75.60
2018-12-27T00:22:34.484Z,79.10
2018-12-27T00:23:34.475Z,81.40
2018-12-27T00:24:34.463Z,94.10
2018-12-27T00:25:34.465Z,70.90
2018-12-27T00:26:34.442Z,80.90
2018-12-27T00:27:34.430Z,74.90
2018-12-27T00:28:34.420Z,72.70
2018-12-27T00:29:34.409Z,75.70
2018-12-27T00:30:34.408Z,76.40
2018-12-27T00:31:34.388Z,76.40
2018-12-27T00:32:34.376Z,74.80
2018-12-27T00:33:34.377Z,76.50
2018-12-27T00:34:34.355Z,72.30
2018-12-27T00:35:34.363Z,68.80
2018-12-27T00:36:34.334Z,65.00
2018-12-27T00:37:34.322Z,78.60
2018-12-27T00:38:34.312Z,74.50
2018-12-27T00:39:34.301Z,68.80
2018-12-27T00:40:34.300Z,70.60
2018-12-27T00:41:34.281Z,67.30
2018-12-27T00:42:34.268Z,77.60
2018-12-27T00:43:34.258Z,68.30
2018-12-27T00:44:34.249Z,78.40
2018-12-27T00:45:34.246Z,70.80
2018-12-27T00:46:34.226Z,68.20
2018-12-27T00:47:34.216Z,74.10
2018-12-27T00:48:34.204Z,77.90
2018-12-27T00:49:34.193Z,71.60
2018-12-27T00:50:34.190Z,70.90
2018-12-27T00:51:34.171Z,71.40
2018-12-27T00:52:34.164Z,72.60
2018-12-27T00:53:34.150Z,79.60
2018-12-27T00:54:34.142Z,83.40
2018-12-27T00:55:34.136Z,78.70
2018-12-27T00:56:34.117Z,73.50
2018-12-27T00:57:34.107Z,78.30
2018-12-27T00:58:34.098Z,83.70
2018-12-27T00:59:34.088Z,76.50
2018-12-27T01:00:34.109Z,80.20
2018-12-27T01:01:34.063Z,73.20
2018-12-27T01:02:34.053Z,76.50
2018-12-27T01:03:34.041Z,71.90
2018-12-27T01:04:34.038Z,79.00
2018-12-27T01:05:34.019Z,74.20
2018-12-27T01:06:34.020Z,71.40
2018-12-27T01:07:33.998Z,71.70
2018-12-27T01:08:33.987Z,77.30
2018-12-27T01:09:33.977Z,78.60
2018-12-27T01:10:33.965Z,76.30
2018-12-27T01:11:33.968Z,69.60
2018-12-27T01:12:33.947Z,71.90
2018-12-27T01:13:33.941Z,71.60
2018-12-27T01:14:34.000Z,70.30
2018-12-27T01:15:33.913Z,68.40
2018-12-27T01:16:33.912Z,64.80
2018-12-27T01:17:33.890Z,69.30
2018-12-27T01:18:33.880Z,72.30
2018-12-27T01:19:33.872Z,85.10
2018-12-27T01:20:33.858Z,70.20
2018-12-27T01:21:33.856Z,67.00
2018-12-27T01:22:33.836Z,70.10
2018-12-27T01:23:33.828Z,70.50
2018-12-27T01:24:33.815Z,68.40
2018-12-27T01:25:33.803Z,70.70
2018-12-27T01:26:33.802Z,70.60
2018-12-27T01:27:33.782Z,66.70
2018-12-27T01:28:33.775Z,66.30
2018-12-27T01:29:33.761Z,69.70
2018-12-27T01:30:33.750Z,76.50
2018-12-27T01:31:33.748Z,71.10
2018-12-27T01:32:33.728Z,66.10
2018-12-27T01:33:33.722Z,63.10
2018-12-27T01:34:33.707Z,72.60
2018-12-27T01:35:33.696Z,64.60
2018-12-27T01:36:33.722Z,72.60
2018-12-27T01:37:33.674Z,70.70
2018-12-27T01:38:33.663Z,66.20
2018-12-27T01:39:33.652Z,68.70
2018-12-27T01:40:33.642Z,76.20
2018-12-27T01:41:33.631Z,67.10
2018-12-27T01:42:33.628Z,62.50
2018-12-27T01:43:33.610Z,68.50
2018-12-27T01:44:33.600Z,67.10
2018-12-27T01:45:33.588Z,67.10
2018-12-27T01:46:33.577Z,57.30
2018-12-27T01:47:33.575Z,69.20
2018-12-27T01:48:33.561Z,70.90
2018-12-27T01:49:33.545Z,68.60
2018-12-27T01:50:33.539Z,77.90
2018-12-27T01:51:33.523Z,65.10
2018-12-27T01:52:33.521Z,72.30
2018-12-27T01:53:33.503Z,68.90
2018-12-27T01:54:33.491Z,62.30
2018-12-27T01:55:33.480Z,65.80
2018-12-27T01:56:33.469Z,59.80
2018-12-27T01:57:33.467Z,65.10
2018-12-27T01:58:33.456Z,65.20
2018-12-27T01:59:33.438Z,69.90
2018-12-27T02:00:33.429Z,66.90
2018-12-27T02:01:33.415Z,68.80
2018-12-27T02:02:33.412Z,71.70
2018-12-27T02:03:33.394Z,77.00
2018-12-27T02:04:33.383Z,73.10
2018-12-27T02:05:33.372Z,73.50
2018-12-27T02:06:33.362Z,69.10
2018-12-27T02:07:33.359Z,63.20
2018-12-27T02:08:33.339Z,69.40
2018-12-27T02:09:33.332Z,64.20
2018-12-27T02:10:33.318Z,68.90
2018-12-27T02:11:33.309Z,66.60
2018-12-27T02:12:33.326Z,73.20
2018-12-27T02:13:33.284Z,71.50
2018-12-27T02:14:33.275Z,64.60
2018-12-27T02:15:33.266Z,68.40
2018-12-27T02:16:33.252Z,61.40
2018-12-27T02:17:33.244Z,70.80
2018-12-27T02:18:33.238Z,76.50
2018-12-27T02:19:33.220Z,66.30
2018-12-27T02:20:33.209Z,63.80
2018-12-27T02:21:33.202Z,59.50
2018-12-27T02:22:33.192Z,61.70
2018-12-27T02:23:33.185Z,57.90
2018-12-27T02:24:33.166Z,60.20
2018-12-27T02:25:33.154Z,60.20
2018-12-27T02:26:33.142Z,55.70
2018-12-27T02:27:33.140Z,56.60
2018-12-27T02:28:33.129Z,63.50
2018-12-27T02:29:33.110Z,54.70
2018-12-27T02:30:33.106Z,52.10
2018-12-27T02:31:33.091Z,55.60
2018-12-27T02:32:33.079Z,55.40
2018-12-27T02:33:35.589Z,49.60
2018-12-27T02:34:33.058Z,49.40
2018-12-27T02:35:33.058Z,51.80
2018-12-27T02:36:33.036Z,50.10
2018-12-27T02:37:33.025Z,53.40
2018-12-27T02:38:33.025Z,49.00
2018-12-27T02:39:33.008Z,47.60
2018-12-27T02:40:32.993Z,49.00
2018-12-27T02:41:32.982Z,45.40
2018-12-27T02:42:32.969Z,44.00
2018-12-27T02:43:32.972Z,43.80
2018-12-27T02:44:32.951Z,45.70
2018-12-27T02:45:32.937Z,43.60
2018-12-27T02:46:32.931Z,42.00
2018-12-27T02:47:32.917Z,44.80
2018-12-27T02:48:32.916Z,41.70
2018-12-27T02:49:32.912Z,39.40
2018-12-27T02:50:32.893Z,37.90
2018-12-27T02:51:32.875Z,37.50
2018-12-27T02:52:32.862Z,38.30
2018-12-27T02:53:32.852Z,37.10
2018-12-27T02:54:32.853Z,36.50
2018-12-27T02:55:32.844Z,36.30
2018-12-27T02:56:32.826Z,39.20
2018-12-27T02:57:32.809Z,37.90
2018-12-27T02:58:32.804Z,32.60
2018-12-27T02:59:32.797Z,35.10
2018-12-27T03:00:32.784Z,33.50
2018-12-27T03:01:32.767Z,36.70
2018-12-27T03:02:32.755Z,33.80
2018-12-27T03:03:32.746Z,35.00
2018-12-27T03:04:32.743Z,31.10
2018-12-27T03:05:32.723Z,34.60
2018-12-27T03:06:32.712Z,31.60
2018-12-27T03:07:32.701Z,33.90
2018-12-27T03:08:32.693Z,35.20
2018-12-27T03:09:32.694Z,36.10
2018-12-27T03:10:32.669Z,32.70
2018-12-27T03:11:32.662Z,32.50
2018-12-27T03:12:32.650Z,35.70
2018-12-27T03:13:32.644Z,33.00
2018-12-27T03:14:32.637Z,29.90
2018-12-27T03:15:32.617Z,31.20
2018-12-27T03:16:32.605Z,27.80
2018-12-27T03:17:32.596Z,29.50
2018-12-27T03:18:32.584Z,30.70
2018-12-27T03:19:32.587Z,28.70
2018-12-27T03:20:32.563Z,27.90
2018-12-27T03:21:32.553Z,29.90
2018-12-27T03:22:32.541Z,26.30
2018-12-27T03:23:32.531Z,27.90
2018-12-27T03:24:32.528Z,28.50
2018-12-27T03:25:32.508Z,27.50
2018-12-27T03:26:32.507Z,29.60
2018-12-27T03:27:32.487Z,25.90
2018-12-27T03:28:32.477Z,28.70
2018-12-27T03:29:32.481Z,27.30
2018-12-27T03:30:32.456Z,27.10
2018-12-27T03:31:32.448Z,28.90
2018-12-27T03:32:32.435Z,28.30
2018-12-27T03:33:32.423Z,28.90
2018-12-27T03:34:32.442Z,27.70
2018-12-27T03:35:32.403Z,26.50
2018-12-27T03:36:32.391Z,29.60
2018-12-27T03:37:32.382Z,28.30
2018-12-27T03:38:32.371Z,27.10
2018-12-27T03:39:32.360Z,28.90
2018-12-27T03:40:32.357Z,27.50
2018-12-27T03:41:32.339Z,29.20
2018-12-27T03:42:32.329Z,28.50
2018-12-27T03:43:32.317Z,28.30
2018-12-27T03:44:32.307Z,28.90
2018-12-27T03:45:32.308Z,27.90
2018-12-27T03:46:32.284Z,30.00
2018-12-27T03:47:32.275Z,27.30
2018-12-27T03:48:32.265Z,26.50
2018-12-27T03:49:32.253Z,25.80
2018-12-27T03:50:32.250Z,26.40
2018-12-27T03:51:32.232Z,27.70
2018-12-27T03:52:32.220Z,25.10
2018-12-27T03:53:32.210Z,26.40
2018-12-27T03:54:32.202Z,26.20
2018-12-27T03:55:32.197Z,24.50
2018-12-27T03:56:32.181Z,23.80
2018-12-27T03:57:32.167Z,23.00
2018-12-27T03:58:32.157Z,25.70
2018-12-27T03:59:32.147Z,25.80
2018-12-27T04:00:32.144Z,26.80
2018-12-27T04:01:32.124Z,25.80
2018-12-27T04:02:32.116Z,26.80
2018-12-27T04:03:32.103Z,28.10
2018-12-27T04:04:32.094Z,24.40
2018-12-27T04:05:32.090Z,25.70
2018-12-27T04:06:32.071Z,26.00
2018-12-27T04:07:32.064Z,26.30
2018-12-27T04:08:32.051Z,22.90
2018-12-27T04:09:32.040Z,24.10
2018-12-27T04:10:32.058Z,24.90
2018-12-27T04:11:32.017Z,24.70
2018-12-27T04:12:32.009Z,22.10
2018-12-27T04:13:31.996Z,22.20
2018-12-27T04:14:31.987Z,25.80
2018-12-27T04:15:31.974Z,24.50
2018-12-27T04:16:31.978Z,22.40
2018-12-27T04:17:31.955Z,23.50
2018-12-27T04:18:31.944Z,21.60
2018-12-27T04:19:31.933Z,23.30
2018-12-27T04:20:31.924Z,25.10
2018-12-27T04:21:31.921Z,25.30
2018-12-27T04:22:31.900Z,27.50
2018-12-27T04:23:31.890Z,24.90
2018-12-27T04:24:31.884Z,26.00
2018-12-27T04:25:31.869Z,25.20
2018-12-27T04:26:31.869Z,25.40
2018-12-27T04:27:31.848Z,27.70
2018-12-27T04:28:31.836Z,28.20
2018-12-27T04:29:31.827Z,29.00
2018-12-27T04:30:31.814Z,28.50
2018-12-27T04:31:31.829Z,29.00
2018-12-27T04:32:31.796Z,28.80
2018-12-27T04:33:31.782Z,30.40
2018-12-27T04:34:31.772Z,27.10
2018-12-27T04:35:31.766Z,31.90
2018-12-27T04:36:31.759Z,27.70
2018-12-27T04:37:31.746Z,26.50
2018-12-27T04:38:31.729Z,23.90
2018-12-27T04:39:31.719Z,25.80
2018-12-27T04:40:31.711Z,26.70
2018-12-27T04:41:31.705Z,26.20
2018-12-27T04:42:31.686Z,29.00
2018-12-27T04:43:31.675Z,28.80
2018-12-27T04:44:31.664Z,26.20
2018-12-27T04:45:31.662Z,26.30
2018-12-27T04:46:31.679Z,26.80
2018-12-27T04:47:31.634Z,25.90
2018-12-27T04:48:31.622Z,25.60
2018-12-27T04:49:31.610Z,25.00
2018-12-27T04:50:31.602Z,23.80
2018-12-27T04:51:31.591Z,24.80
2018-12-27T04:52:31.598Z,25.50
2018-12-27T04:53:31.569Z,25.60
2018-12-27T04:54:31.561Z,24.20
2018-12-27T04:55:31.547Z,25.90
2018-12-27T04:56:31.535Z,24.80
2018-12-27T04:57:31.537Z,25.60
2018-12-27T04:58:31.516Z,25.50
2018-12-27T04:59:31.505Z,25.80
2018-12-27T05:00:31.498Z,25.50
2018-12-27T05:01:31.482Z,25.50
2018-12-27T05:02:31.479Z,24.80
2018-12-27T05:03:31.460Z,24.20
2018-12-27T05:04:31.452Z,25.10
2018-12-27T05:05:31.445Z,25.70
2018-12-27T05:06:31.429Z,25.10
2018-12-27T05:07:31.426Z,25.60
2018-12-27T05:08:31.409Z,25.60
2018-12-27T05:09:31.399Z,25.60
2018-12-27T05:10:31.392Z,26.90
2018-12-27T05:11:31.376Z,26.20
2018-12-27T05:12:31.372Z,26.90
2018-12-27T05:13:31.354Z,29.80
2018-12-27T05:14:31.345Z,27.20
2018-12-27T05:15:31.341Z,28.10
2018-12-27T05:16:31.323Z,28.70
2018-12-27T05:17:31.321Z,29.90
2018-12-27T05:18:31.303Z,31.90
2018-12-27T05:19:31.289Z,31.70
2018-12-27T05:20:31.280Z,30.50
2018-12-27T05:21:31.269Z,29.10
2018-12-27T05:22:31.277Z,32.40
2018-12-27T05:23:31.250Z,33.50
2018-12-27T05:24:31.236Z,37.70
2018-12-27T05:25:31.226Z,37.30
2018-12-27T05:26:31.214Z,38.90
2018-12-27T05:27:31.239Z,39.80
2018-12-27T05:28:31.196Z,41.40
2018-12-27T05:29:31.184Z,41.80
2018-12-27T05:30:31.172Z,43.90
2018-12-27T05:31:31.160Z,43.50
2018-12-27T05:32:31.150Z,44.20
2018-12-27T05:33:31.150Z,43.20
2018-12-27T05:34:31.128Z,43.50
2018-12-27T05:35:31.118Z,42.40
2018-12-27T05:36:31.111Z,40.60
2018-12-27T05:37:31.096Z,39.20
2018-12-27T05:38:31.094Z,42.50
2018-12-27T05:39:31.079Z,39.90
2018-12-27T05:40:31.064Z,36.70
2018-12-27T05:41:31.054Z,36.00
2018-12-27T05:42:31.043Z,37.10
2018-12-27T05:43:31.041Z,40.00
2018-12-27T05:44:31.024Z,36.10
2018-12-27T05:45:31.015Z,32.80
2018-12-27T05:46:31.000Z,32.60
2018-12-27T05:47:30.989Z,32.60
2018-12-27T05:48:30.986Z,30.70
2018-12-27T05:49:30.970Z,28.70
2018-12-27T05:50:30.961Z,30.50
2018-12-27T05:51:30.947Z,30.10
2018-12-27T05:52:30.937Z,29.20
2018-12-27T05:53:30.934Z,30.20
2018-12-27T05:54:30.916Z,29.90
2018-12-27T05:55:34.445Z,30.70
2018-12-27T05:56:30.894Z,28.90
2018-12-27T05:57:30.882Z,27.30
2018-12-27T05:58:30.901Z,31.00
2018-12-27T05:59:30.864Z,28.20
2018-12-27T06:00:30.851Z,26.20
2018-12-27T06:01:30.841Z,31.50
2018-12-27T06:02:30.830Z,29.00
2018-12-27T06:03:30.819Z,31.60
2018-12-27T06:04:33.981Z,30.50
2018-12-27T06:05:30.797Z,28.80
2018-12-27T06:06:30.789Z,29.90
2018-12-27T06:07:30.778Z,28.10
2018-12-27T06:08:30.768Z,29.50
2018-12-27T06:09:30.764Z,28.70
2018-12-27T06:10:30.743Z,28.60
2018-12-27T06:11:30.732Z,28.30
2018-12-27T06:12:30.725Z,30.70
2018-12-27T06:13:30.711Z,28.40
2018-12-27T06:14:30.710Z,27.80
2018-12-27T06:15:30.692Z,29.60
2018-12-27T06:16:30.683Z,30.70
2018-12-27T06:17:30.670Z,33.00
2018-12-27T06:18:30.658Z,28.70
2018-12-27T06:19:30.656Z,28.70
2018-12-27T06:20:30.640Z,29.70
2018-12-27T06:21:30.626Z,31.70
2018-12-27T06:22:30.616Z,29.60
2018-12-27T06:23:30.605Z,29.40
2018-12-27T06:24:30.605Z,29.50
2018-12-27T06:25:30.589Z,29.20
2018-12-27T06:26:30.574Z,30.90
2018-12-27T06:27:30.563Z,32.00
2018-12-27T06:28:30.553Z,30.70
2018-12-27T06:29:30.549Z,30.30
2018-12-27T06:30:30.535Z,30.20
2018-12-27T06:31:30.520Z,24.70
2018-12-27T06:32:30.510Z,28.00
2018-12-27T06:33:30.498Z,24.80
2018-12-27T06:34:30.496Z,25.80
2018-12-27T06:35:30.479Z,25.80
2018-12-27T06:36:30.466Z,25.70
2018-12-27T06:37:30.456Z,26.70
2018-12-27T06:38:30.446Z,24.50
2018-12-27T06:39:30.448Z,31.20
2018-12-27T06:40:30.424Z,26.30
2018-12-27T06:41:30.416Z,26.40
2018-12-27T06:42:30.402Z,29.00
2018-12-27T06:43:30.392Z,29.60
2018-12-27T06:44:30.674Z,30.50
2018-12-27T06:45:30.370Z,26.10
2018-12-27T06:46:30.360Z,26.90
2018-12-27T06:47:30.349Z,27.40
2018-12-27T06:48:30.338Z,26.10
2018-12-27T06:49:30.328Z,26.80
2018-12-27T06:50:30.324Z,29.80
2018-12-27T06:51:30.306Z,28.00
2018-12-27T06:52:30.295Z,34.10
2018-12-27T06:53:30.285Z,29.20
2018-12-27T06:54:30.276Z,30.00
2018-12-27T06:55:30.271Z,31.80
2018-12-27T06:56:30.254Z,28.10
2018-12-27T06:57:30.242Z,33.10
2018-12-27T06:58:37.577Z,28.40
2018-12-27T06:59:31.219Z,28.50
2018-12-27T07:00:30.218Z,28.40
2018-12-27T07:01:30.200Z,28.20
2018-12-27T07:02:30.189Z,28.80
2018-12-27T07:03:30.181Z,27.30
2018-12-27T07:04:30.168Z,28.00
2018-12-27T07:05:30.166Z,29.80
2018-12-27T07:06:30.146Z,28.00
2018-12-27T07:07:30.134Z,30.90
2018-12-27T07:08:30.124Z,31.70
2018-12-27T07:09:30.117Z,31.40
2018-12-27T07:10:30.111Z,27.80
2018-12-27T07:11:30.093Z,27.50
2018-12-27T07:12:30.084Z,27.20
2018-12-27T07:13:30.071Z,31.70
2018-12-27T07:14:30.061Z,27.50
2018-12-27T07:15:30.058Z,27.50
2018-12-27T07:16:30.039Z,29.90
2018-12-27T07:17:30.029Z,27.90
2018-12-27T07:18:30.018Z,26.30
2018-12-27T07:19:30.008Z,30.10
2018-12-27T07:20:30.006Z,31.70
2018-12-27T07:21:29.986Z,31.20
2018-12-27T07:22:29.975Z,34.50
2018-12-27T07:23:29.964Z,29.80
2018-12-27T07:24:29.955Z,27.80
2018-12-27T07:25:29.952Z,27.50
2018-12-27T07:26:29.934Z,27.20
2018-12-27T07:27:29.920Z,29.80
2018-12-27T07:28:29.911Z,29.90
2018-12-27T07:29:29.900Z,29.10
2018-12-27T07:30:29.915Z,34.90
2018-12-27T07:31:29.878Z,32.20
2018-12-27T07:32:29.866Z,30.10
2018-12-27T07:33:29.858Z,27.90
2018-12-27T07:34:29.846Z,29.80
2018-12-27T07:35:29.834Z,27.60
2018-12-27T07:36:29.834Z,32.30
2018-12-27T07:37:29.812Z,30.50
2018-12-27T07:38:29.802Z,32.50
2018-12-27T07:39:29.791Z,31.30
2018-12-27T07:40:29.780Z,33.50
2018-12-27T07:41:29.781Z,32.50
2018-12-27T07:42:29.760Z,29.50
2018-12-27T07:43:29.748Z,29.20
2018-12-27T07:44:29.741Z,34.10
2018-12-27T07:45:29.726Z,32.10
2018-12-27T07:46:29.725Z,28.10
2018-12-27T07:47:29.704Z,29.80
2018-12-27T07:48:29.694Z,28.40
2018-12-27T07:49:29.682Z,29.70
2018-12-27T07:50:29.672Z,28.90
2018-12-27T07:51:29.669Z,28.00
2018-12-27T07:52:29.650Z,26.90
2018-12-27T07:53:29.642Z,27.00
2018-12-27T07:54:29.628Z,29.20
2018-12-27T07:55:29.618Z,28.10
2018-12-27T07:56:29.617Z,29.30
2018-12-27T07:57:29.598Z,25.80
2018-12-27T07:58:29.587Z,27.40
2018-12-27T07:59:29.584Z,28.40
2018-12-27T08:00:29.564Z,28.80
2018-12-27T08:01:29.563Z,28.60
2018-12-27T08:02:29.542Z,27.80
2018-12-27T08:03:29.534Z,28.50
2018-12-27T08:04:29.521Z,27.50
2018-12-27T08:05:29.510Z,26.90
2018-12-27T08:06:29.510Z,27.40
2018-12-27T08:07:29.488Z,29.20
2018-12-27T08:08:29.498Z,27.80
2018-12-27T08:09:29.467Z,28.30
2018-12-27T08:10:29.456Z,28.00
2018-12-27T08:11:29.462Z,29.10
2018-12-27T08:12:29.435Z,27.40
2018-12-27T08:13:29.428Z,28.10
2018-12-27T08:14:29.414Z,29.60
2018-12-27T08:15:29.403Z,28.80
2018-12-27T08:16:29.432Z,28.50
2018-12-27T08:17:29.383Z,27.80
2018-12-27T08:18:29.372Z,29.30
2018-12-27T08:19:29.360Z,28.30
2018-12-27T08:20:29.352Z,28.70
2018-12-27T08:21:29.337Z,29.20
2018-12-27T08:22:29.336Z,30.00
2018-12-27T08:23:29.319Z,29.90
2018-12-27T08:24:29.306Z,29.80
2018-12-27T08:25:29.295Z,29.00
2018-12-27T08:26:29.284Z,30.00
2018-12-27T08:27:29.281Z,31.90
2018-12-27T08:28:29.265Z,32.50
2018-12-27T08:29:29.255Z,31.60
2018-12-27T08:30:29.242Z,32.50
2018-12-27T08:31:29.233Z,33.40
2018-12-27T08:32:29.233Z,33.70
2018-12-27T08:33:29.208Z,32.80
2018-12-27T08:34:29.197Z,32.00
2018-12-27T08:35:29.187Z,32.70
2018-12-27T08:36:29.241Z,32.70
2018-12-27T08:37:29.181Z,33.00
2018-12-27T08:38:29.165Z,35.20
2018-12-27T08:39:29.145Z,33.50
2018-12-27T08:40:29.134Z,33.20
2018-12-27T08:41:29.122Z,34.70
2018-12-27T08:42:29.121Z,34.70
2018-12-27T08:43:29.101Z,34.60
2018-12-27T08:44:29.091Z,33.00
2018-12-27T08:45:29.079Z,32.70
2018-12-27T08:46:29.068Z,33.40
2018-12-27T08:47:29.066Z,33.60
2018-12-27T08:48:29.050Z,32.30
2018-12-27T08:49:29.036Z,33.60
2018-12-27T08:50:29.025Z,36.80
2018-12-27T08:51:29.016Z,36.60
2018-12-27T08:52:29.011Z,34.70
2018-12-27T08:53:28.993Z,33.20
2018-12-27T08:54:28.983Z,35.30
2018-12-27T08:55:28.971Z,32.60
2018-12-27T08:56:28.963Z,35.60
2018-12-27T08:57:28.980Z,32.70
2018-12-27T08:58:28.939Z,34.30
2018-12-27T08:59:28.930Z,36.00
2018-12-27T09:00:28.920Z,35.00
2018-12-27T09:01:28.918Z,34.60
2018-12-27T09:02:28.908Z,33.10
2018-12-27T09:03:28.907Z,35.20
2018-12-27T09:04:28.874Z,35.60
2018-12-27T09:05:28.865Z,34.00
2018-12-27T09:06:28.852Z,36.20
2018-12-27T09:07:28.842Z,35.40
2018-12-27T09:08:28.839Z,34.50
2018-12-27T09:09:28.821Z,35.30
2018-12-27T09:10:28.809Z,36.10
2018-12-27T09:11:28.801Z,34.20
2018-12-27T09:12:28.788Z,36.80
2018-12-27T09:13:28.785Z,35.60
2018-12-27T09:14:28.766Z,34.90
2018-12-27T09:15:28.754Z,37.50
2018-12-27T09:16:28.766Z,37.30
2018-12-27T09:17:28.739Z,36.00
2018-12-27T09:18:28.754Z,37.20
2018-12-27T09:19:28.711Z,35.00
2018-12-27T09:20:28.702Z,36.40
2018-12-27T09:21:28.689Z,35.20
2018-12-27T09:22:28.684Z,37.60
2018-12-27T09:23:28.677Z,34.80
2018-12-27T09:24:28.657Z,35.70
2018-12-27T09:25:28.654Z,34.30
2018-12-27T09:26:28.643Z,34.90
2018-12-27T09:27:28.627Z,33.50
2018-12-27T09:28:28.622Z,35.10
2018-12-27T09:29:28.608Z,34.10
2018-12-27T09:30:28.606Z,37.40
2018-12-27T09:31:28.580Z,35.00
2018-12-27T09:32:28.571Z,36.80
2018-12-27T09:33:28.569Z,35.50
2018-12-27T09:34:28.549Z,36.20
2018-12-27T09:35:28.537Z,35.60
2018-12-27T09:36:28.528Z,34.60
2018-12-27T09:37:28.516Z,37.10
2018-12-27T09:38:28.530Z,35.80
2018-12-27T09:39:28.495Z,36.50
2018-12-27T09:40:28.484Z,40.10
2018-12-27T09:41:28.474Z,36.40
2018-12-27T09:42:28.462Z,35.50
2018-12-27T09:43:28.478Z,37.90
2018-12-27T09:44:28.440Z,37.30
2018-12-27T09:45:28.434Z,39.30
2018-12-27T09:46:28.448Z,35.40
2018-12-27T09:47:28.407Z,36.50
2018-12-27T09:48:28.396Z,38.40
2018-12-27T09:49:28.396Z,38.00
2018-12-27T09:50:28.378Z,39.10
2018-12-27T09:51:28.364Z,38.00
2018-12-27T09:52:28.353Z,38.90
2018-12-27T09:53:28.343Z,37.20
2018-12-27T09:54:28.341Z,38.70
2018-12-27T09:55:28.322Z,38.50
2018-12-27T09:56:28.314Z,39.70
2018-12-27T09:57:28.300Z,38.20
2018-12-27T09:58:28.289Z,39.80
2018-12-27T09:59:28.292Z,39.70
2018-12-27T10:00:28.266Z,39.70
2018-12-27T10:01:28.256Z,38.60
2018-12-27T10:02:28.245Z,43.60
2018-12-27T10:03:28.234Z,40.10
2018-12-27T10:04:28.232Z,42.00
2018-12-27T10:05:33.776Z,40.60
2018-12-27T10:06:29.202Z,39.70
2018-12-27T10:07:28.192Z,40.20
2018-12-27T10:08:28.181Z,41.80
2018-12-27T10:09:28.219Z,43.20
2018-12-27T10:10:28.159Z,40.80
2018-12-27T10:11:28.152Z,39.60
2018-12-27T10:12:28.137Z,39.40
2018-12-27T10:13:28.130Z,42.00
2018-12-27T10:14:28.117Z,43.40
2018-12-27T10:15:28.135Z,40.90
2018-12-27T10:16:28.094Z,42.50
2018-12-27T10:17:28.084Z,42.90
2018-12-27T10:18:28.078Z,45.50
2018-12-27T10:19:28.068Z,45.40
2018-12-27T10:20:28.060Z,45.50
2018-12-27T10:21:28.040Z,45.70
2018-12-27T10:22:28.030Z,45.20
2018-12-27T10:23:28.022Z,40.90
2018-12-27T10:24:28.016Z,42.40
2018-12-27T10:25:28.008Z,45.00
2018-12-27T10:26:27.987Z,42.30
2018-12-27T10:27:27.975Z,41.90
2018-12-27T10:28:27.968Z,42.50
2018-12-27T10:29:28.115Z,40.50
2018-12-27T10:30:27.955Z,43.60
2018-12-27T10:31:27.933Z,42.50
2018-12-27T10:32:27.924Z,42.60
2018-12-27T10:33:27.913Z,40.50
2018-12-27T10:34:27.904Z,40.60
2018-12-27T10:35:27.904Z,38.90
2018-12-27T10:36:27.880Z,42.60
2018-12-27T10:37:27.874Z,40.40
2018-12-27T10:38:27.890Z,40.10
2018-12-27T10:39:27.847Z,40.20
2018-12-27T10:40:27.848Z,37.30
2018-12-27T10:41:27.827Z,39.30
2018-12-27T10:42:27.817Z,39.40
2018-12-27T10:43:27.819Z,39.50
2018-12-27T10:44:27.797Z,42.80
2018-12-27T10:45:27.810Z,39.30
2018-12-27T10:46:27.776Z,39.40
2018-12-27T10:47:27.763Z,39.70
2018-12-27T10:48:27.751Z,37.40
2018-12-27T10:49:27.741Z,38.90
2018-12-27T10:50:27.732Z,35.30
2018-12-27T10:51:27.726Z,38.30
2018-12-27T10:52:27.710Z,35.50
2018-12-27T10:53:27.703Z,36.80
2018-12-27T10:54:27.687Z,38.60
2018-12-27T10:55:27.673Z,39.60
2018-12-27T10:56:27.671Z,39.60
2018-12-27T10:57:27.660Z,37.60
2018-12-27T10:58:27.641Z,38.00
2018-12-27T10:59:27.630Z,37.10
2018-12-27T11:00:27.620Z,38.50
2018-12-27T11:01:27.618Z,37.20
2018-12-27T11:02:27.600Z,37.60
2018-12-27T11:03:30.732Z,38.70
2018-12-27T11:04:27.579Z,41.20
2018-12-27T11:05:27.566Z,36.40
2018-12-27T11:06:27.564Z,39.30
2018-12-27T11:07:27.545Z,38.90
2018-12-27T11:08:27.535Z,35.90
2018-12-27T11:09:27.524Z,37.00
2018-12-27T11:10:27.514Z,38.00
2018-12-27T11:11:27.514Z,35.70
2018-12-27T11:12:27.492Z,35.50
2018-12-27T11:13:27.483Z,38.40
2018-12-27T11:14:27.471Z,36.20
2018-12-27T11:15:27.460Z,36.10
2018-12-27T11:16:27.457Z,35.80
2018-12-27T11:17:27.439Z,33.80
2018-12-27T11:18:28.464Z,35.70
2018-12-27T11:19:27.418Z,32.60
2018-12-27T11:20:27.406Z,33.60
2018-12-27T11:21:27.423Z,33.10
2018-12-27T11:22:27.389Z,34.40
2018-12-27T11:23:27.375Z,33.20
2018-12-27T11:24:27.364Z,33.10
2018-12-27T11:25:27.357Z,31.80
2018-12-27T11:26:27.343Z,33.40
2018-12-27T11:27:27.339Z,34.60
2018-12-27T11:28:27.321Z,33.40
2018-12-27T11:29:27.311Z,36.30
2018-12-27T11:30:27.299Z,34.00
2018-12-27T11:31:27.288Z,35.10
2018-12-27T11:32:27.286Z,36.70
2018-12-27T11:33:27.268Z,33.60
2018-12-27T11:34:27.255Z,33.20
2018-12-27T11:35:27.246Z,35.30
2018-12-27T11:36:27.234Z,38.10
2018-12-27T11:37:27.233Z,33.50
2018-12-27T11:38:27.216Z,33.30
2018-12-27T11:39:27.202Z,34.90
2018-12-27T11:40:27.193Z,32.60
2018-12-27T11:41:27.183Z,31.90
2018-12-27T11:42:27.179Z,33.70
2018-12-27T11:43:27.168Z,35.10
2018-12-27T11:44:27.149Z,35.00
2018-12-27T11:45:27.139Z,34.70
2018-12-27T11:46:27.127Z,33.70
2018-12-27T11:47:27.127Z,32.60
2018-12-27T11:48:27.106Z,33.10
2018-12-27T11:49:27.095Z,30.50
2018-12-27T11:50:27.087Z,35.90
2018-12-27T11:51:27.077Z,33.90
2018-12-27T11:52:27.099Z,32.30
2018-12-27T11:53:27.052Z,33.00
2018-12-27T11:54:27.043Z,33.00
2018-12-27T11:55:27.031Z,34.70
2018-12-27T11:56:27.023Z,35.00
2018-12-27T11:57:27.009Z,31.20
2018-12-27T11:58:27.006Z,31.00
2018-12-27T11:59:26.988Z,35.20
2018-12-27T12:00:26.977Z,34.90
2018-12-27T12:01:26.971Z,35.30
2018-12-27T12:02:31.029Z,32.40
2018-12-27T12:03:26.954Z,36.40
2018-12-27T12:04:26.935Z,32.00
2018-12-27T12:05:26.923Z,33.10
2018-12-27T12:06:26.912Z,34.40
2018-12-27T12:07:26.902Z,37.20
2018-12-27T12:08:26.901Z,32.80
2018-12-27T12:09:26.881Z,33.30
2018-12-27T12:10:26.869Z,34.10
2018-12-27T12:11:26.860Z,33.50
2018-12-27T12:12:26.848Z,33.70
2018-12-27T12:13:26.847Z,38.00
2018-12-27T12:14:26.827Z,33.60
2018-12-27T12:15:26.819Z,34.50
2018-12-27T12:16:26.856Z,35.10
2018-12-27T12:17:26.794Z,36.00
2018-12-27T12:18:26.792Z,34.30
2018-12-27T12:19:26.775Z,37.00
2018-12-27T12:20:26.765Z,35.50
2018-12-27T12:21:26.752Z,36.20
2018-12-27T12:22:26.741Z,35.10
2018-12-27T12:23:26.739Z,34.10
2018-12-27T12:24:26.720Z,34.00
2018-12-27T12:25:26.710Z,34.00
2018-12-27T12:26:26.708Z,33.00
2018-12-27T12:27:26.687Z,32.50
2018-12-27T12:28:26.685Z,31.70
2018-12-27T12:29:26.669Z,33.60
2018-12-27T12:30:26.657Z,36.00
2018-12-27T12:31:26.648Z,34.00
2018-12-27T12:32:26.633Z,37.50
2018-12-27T12:33:26.632Z,42.30
2018-12-27T12:34:26.613Z,43.00
2018-12-27T12:35:26.604Z,41.60
2018-12-27T12:36:26.590Z,47.90
2018-12-27T12:37:26.579Z,44.50
2018-12-27T12:38:26.570Z,40.80
2018-12-27T12:39:26.566Z,42.10
2018-12-27T12:40:26.549Z,43.40
2018-12-27T12:41:26.536Z,39.40
2018-12-27T12:42:33.010Z,37.10
2018-12-27T12:43:27.515Z,35.40
2018-12-27T12:44:26.514Z,43.60
2018-12-27T12:45:26.493Z,39.20
2018-12-27T12:46:26.481Z,39.80
2018-12-27T12:47:26.481Z,37.90
2018-12-27T12:48:26.461Z,33.30
2018-12-27T12:49:26.458Z,38.20
2018-12-27T12:50:26.439Z,35.60
2018-12-27T12:51:26.428Z,31.20
2018-12-27T12:52:26.418Z,30.10